createdAt,value
2022-08-28T00:00:02.915Z,0.00
2022-08-28T00:01:02.887Z,0.00
2022-08-28T00:02:02.882Z,0.00
2022-08-28T00:03:02.931Z,0.00
2022-08-28T00:04:02.872Z,0.00
2022-08-28T00:05:03.685Z,0.00
2022-08-28T00:06:02.821Z,0.00
2022-08-28T00:07:02.819Z,0.00
2022-08-28T00:08:02.810Z,0.00
2022-08-28T00:09:02.771Z,0.00
2022-08-28T00:10:02.779Z,0.00
2022-08-28T00:11:02.743Z,0.00
2022-08-28T00:12:02.740Z,0.00
2022-08-28T00:13:02.736Z,0.00
2022-08-28T00:14:02.699Z,0.00
2022-08-28T00:15:02.690Z,0.00
2022-08-28T00:16:02.742Z,0.00
2022-08-28T00:17:02.680Z,0.00
2022-08-28T00:18:02.657Z,0.00
2022-08-28T00:19:02.628Z,0.00
2022-08-28T00:20:02.619Z,0.00
2022-08-28T00:21:02.601Z,0.00
2022-08-28T00:22:02.623Z,0.00
2022-08-28T00:23:02.597Z,0.00
2022-08-28T00:24:02.605Z,0.00
2022-08-28T00:25:02.545Z,0.00
2022-08-28T00:26:02.540Z,0.00
2022-08-28T00:27:02.538Z,0.00
2022-08-28T00:28:05.409Z,0.00
2022-08-28T00:29:02.494Z,0.00
2022-08-28T00:30:02.471Z,0.00
2022-08-28T00:31:02.522Z,0.00
2022-08-28T00:32:02.463Z,0.00
2022-08-28T00:33:02.450Z,0.00
2022-08-28T00:34:02.428Z,0.00
2022-08-28T00:35:02.404Z,0.00
2022-08-28T00:36:02.401Z,0.00
2022-08-28T00:37:02.396Z,0.00
2022-08-28T00:38:02.392Z,0.00
2022-08-28T00:39:02.364Z,0.00
2022-08-28T00:40:02.497Z,0.00
2022-08-28T00:41:04.069Z,0.00
2022-08-28T00:42:02.334Z,0.00
2022-08-28T00:43:02.322Z,0.00
2022-08-28T00:44:02.287Z,0.00
2022-08-28T00:45:02.271Z,0.00
2022-08-28T00:46:02.300Z,0.00
2022-08-28T00:47:02.281Z,0.00
2022-08-28T00:48:02.216Z,0.00
2022-08-28T00:49:02.198Z,0.00
2022-08-28T00:50:02.198Z,0.00
2022-08-28T00:51:02.201Z,0.00
2022-08-28T00:52:02.191Z,0.00
2022-08-28T00:53:02.186Z,0.00
2022-08-28T00:54:06.911Z,0.00
2022-08-28T00:55:02.134Z,0.00
2022-08-28T00:56:02.121Z,0.00
2022-08-28T00:57:02.121Z,0.00
2022-08-28T00:58:02.105Z,0.00
2022-08-28T00:59:02.061Z,0.00
2022-08-28T01:00:02.047Z,0.00
2022-08-28T01:01:02.036Z,0.00
2022-08-28T01:02:02.139Z,0.00
2022-08-28T01:03:02.130Z,0.00
2022-08-28T01:04:01.992Z,0.00
2022-08-28T01:05:01.979Z,0.00
2022-08-28T01:06:01.978Z,0.00
2022-08-28T01:07:01.970Z,0.00
2022-08-28T01:08:01.942Z,0.00
2022-08-28T01:09:01.920Z,0.00
2022-08-28T01:10:01.930Z,0.00
2022-08-28T01:11:01.903Z,0.00
2022-08-28T01:12:01.898Z,0.00
2022-08-28T01:13:01.914Z,0.00
2022-08-28T01:14:03.133Z,0.00
2022-08-28T01:15:01.864Z,0.00
2022-08-28T01:16:01.922Z,0.00
2022-08-28T01:17:01.829Z,0.00
2022-08-28T01:18:07.382Z,0.00
2022-08-28T01:19:01.783Z,0.00
2022-08-28T01:20:01.775Z,0.00
2022-08-28T01:21:01.764Z,0.00
2022-08-28T01:22:01.766Z,0.00
2022-08-28T01:23:02.703Z,0.00
2022-08-28T01:24:01.784Z,0.00
2022-08-28T01:25:01.741Z,0.00
2022-08-28T01:26:01.711Z,0.00
2022-08-28T01:27:01.691Z,0.00
2022-08-28T01:28:01.671Z,0.00
2022-08-28T01:29:01.649Z,0.00
2022-08-28T01:30:01.638Z,0.00
2022-08-28T01:31:01.677Z,0.00
2022-08-28T01:32:01.653Z,0.00
2022-08-28T01:33:01.653Z,0.00
2022-08-28T01:34:01.663Z,0.00
2022-08-28T01:35:01.691Z,0.00
2022-08-28T01:36:01.696Z,0.00
2022-08-28T01:37:03.635Z,0.00
2022-08-28T01:38:01.577Z,0.00
2022-08-28T01:39:01.509Z,0.00
2022-08-28T01:40:02.226Z,0.00
2022-08-28T01:41:01.491Z,0.00
2022-08-28T01:42:01.479Z,0.00
2022-08-28T01:43:01.437Z,0.00
2022-08-28T01:44:01.445Z,0.00
2022-08-28T01:45:01.427Z,0.00
2022-08-28T01:46:01.452Z,0.00
2022-08-28T01:47:01.391Z,0.00
2022-08-28T01:48:01.367Z,0.00
2022-08-28T01:49:01.376Z,0.00
2022-08-28T01:50:01.359Z,0.00
2022-08-28T01:51:01.358Z,0.00
2022-08-28T01:52:03.437Z,0.00
2022-08-28T01:53:01.298Z,0.00
2022-08-28T01:54:01.288Z,0.00
2022-08-28T01:55:01.288Z,0.00
2022-08-28T01:56:01.282Z,0.00
2022-08-28T01:57:01.258Z,0.00
2022-08-28T01:58:01.233Z,0.00
2022-08-28T01:59:01.217Z,0.00
2022-08-28T02:00:01.233Z,0.00
2022-08-28T02:01:01.220Z,0.00
2022-08-28T02:02:01.744Z,0.00
2022-08-28T02:03:01.163Z,0.00
2022-08-28T02:04:01.178Z,0.00
2022-08-28T02:05:01.143Z,0.00
2022-08-28T02:06:01.137Z,0.00
2022-08-28T02:07:01.702Z,0.00
2022-08-28T02:08:01.105Z,0.00
2022-08-28T02:09:01.080Z,0.00
2022-08-28T02:10:01.074Z,0.00
2022-08-28T02:11:01.066Z,0.00
2022-08-28T02:12:01.045Z,0.00
2022-08-28T02:13:01.014Z,0.00
2022-08-28T02:14:01.059Z,0.00
2022-08-28T02:15:01.007Z,0.00
2022-08-28T02:16:01.000Z,0.00
2022-08-28T02:17:00.958Z,0.00
2022-08-28T02:18:00.939Z,0.00
2022-08-28T02:19:00.947Z,0.00
2022-08-28T02:20:00.942Z,0.00
2022-08-28T02:21:00.902Z,0.00
2022-08-28T02:22:00.891Z,0.00
2022-08-28T02:23:00.873Z,0.00
2022-08-28T02:24:00.874Z,0.00
2022-08-28T02:25:00.871Z,0.00
2022-08-28T02:26:01.719Z,0.00
2022-08-28T02:27:00.820Z,0.00
2022-08-28T02:28:00.807Z,0.00
2022-08-28T02:29:00.807Z,0.00
2022-08-28T02:30:00.801Z,0.00
2022-08-28T02:31:01.764Z,0.00
2022-08-28T02:32:00.752Z,0.00
2022-08-28T02:33:00.731Z,0.00
2022-08-28T02:34:00.739Z,0.00
2022-08-28T02:35:00.724Z,0.00
2022-08-28T02:36:00.694Z,0.00
2022-08-28T02:37:00.691Z,0.00
2022-08-28T02:38:00.694Z,0.00
2022-08-28T02:39:00.672Z,0.00
2022-08-28T02:40:00.644Z,4.00
2022-08-28T02:41:00.632Z,4.00
2022-08-28T02:42:00.598Z,4.00
2022-08-28T02:43:00.599Z,0.00
2022-08-28T02:44:00.596Z,0.00
2022-08-28T02:45:00.556Z,0.00
2022-08-28T02:46:00.583Z,4.00
2022-08-28T02:47:00.529Z,4.00
2022-08-28T02:48:00.529Z,4.00
2022-08-28T02:49:00.555Z,4.00
2022-08-28T02:50:00.528Z,4.00
2022-08-28T02:51:00.476Z,4.00
2022-08-28T02:52:00.459Z,4.00
2022-08-28T02:53:00.461Z,8.00
2022-08-28T02:54:00.471Z,4.00
2022-08-28T02:55:00.420Z,4.00
2022-08-28T02:56:00.409Z,8.00
2022-08-28T02:57:00.385Z,4.00
2022-08-28T02:58:00.392Z,8.00
2022-08-28T02:59:00.386Z,8.00
2022-08-28T03:00:00.352Z,8.00
2022-08-28T03:01:00.368Z,12.00
2022-08-28T03:02:00.319Z,8.00
2022-08-28T03:03:00.351Z,12.00
2022-08-28T03:04:00.329Z,16.00
2022-08-28T03:05:01.241Z,12.00
2022-08-28T03:06:00.271Z,16.00
2022-08-28T03:07:00.247Z,16.00
2022-08-28T03:08:00.257Z,16.00
2022-08-28T03:09:00.252Z,16.00
2022-08-28T03:10:00.727Z,20.00
2022-08-28T03:11:00.191Z,20.00
2022-08-28T03:12:00.177Z,24.00
2022-08-28T03:13:00.174Z,24.00
2022-08-28T03:14:00.141Z,24.00
2022-08-28T03:15:00.746Z,28.00
2022-08-28T03:16:00.119Z,28.00
2022-08-28T03:17:00.176Z,28.00
2022-08-28T03:18:00.121Z,28.00
2022-08-28T03:19:00.114Z,32.00
2022-08-28T03:20:00.079Z,36.00
2022-08-28T03:21:00.666Z,36.00
2022-08-28T03:22:00.033Z,36.00
2022-08-28T03:23:00.045Z,36.00
2022-08-28T03:24:00.001Z,40.00
2022-08-28T03:25:00.001Z,40.00
2022-08-28T03:25:59.969Z,44.00
2022-08-28T03:26:59.975Z,44.00
2022-08-28T03:27:59.965Z,48.00
2022-08-28T03:28:59.937Z,52.00
2022-08-28T03:29:59.915Z,52.00
2022-08-28T03:31:00.014Z,52.00
2022-08-28T03:31:59.908Z,56.00
2022-08-28T03:32:59.898Z,60.00
2022-08-28T03:33:59.864Z,64.00
2022-08-28T03:34:59.842Z,64.00
2022-08-28T03:35:59.834Z,64.00
2022-08-28T03:36:59.836Z,68.00
2022-08-28T03:37:59.822Z,72.00
2022-08-28T03:39:00.780Z,72.00
2022-08-28T03:39:59.828Z,76.00
2022-08-28T03:40:59.760Z,80.00
2022-08-28T03:41:59.768Z,80.00
2022-08-28T03:42:59.753Z,80.00
2022-08-28T03:44:00.275Z,84.00
2022-08-28T03:44:59.701Z,88.00
2022-08-28T03:45:59.751Z,92.00
2022-08-28T03:46:59.704Z,92.00
2022-08-28T03:47:59.708Z,96.00
2022-08-28T03:48:59.687Z,100.00
2022-08-28T03:49:59.632Z,104.00
2022-08-28T03:50:59.626Z,104.00
2022-08-28T03:51:59.629Z,108.00
2022-08-28T03:52:59.608Z,112.00
2022-08-28T03:53:59.625Z,112.00
2022-08-28T03:54:59.568Z,120.00
2022-08-28T03:55:59.557Z,124.00
2022-08-28T03:56:59.565Z,124.00
2022-08-28T03:57:59.515Z,128.00
2022-08-28T03:58:59.502Z,132.00
2022-08-28T03:59:59.493Z,132.00
2022-08-28T04:00:59.542Z,140.00
2022-08-28T04:01:59.491Z,144.00
2022-08-28T04:02:59.489Z,148.00
2022-08-28T04:03:59.453Z,152.00
2022-08-28T04:04:59.416Z,156.00
2022-08-28T04:05:59.411Z,156.00
2022-08-28T04:06:59.415Z,164.00
2022-08-28T04:07:59.377Z,164.00
2022-08-28T04:09:00.172Z,172.00
2022-08-28T04:09:59.369Z,176.00
2022-08-28T04:10:59.350Z,188.00
2022-08-28T04:11:59.339Z,180.00
2022-08-28T04:13:00.291Z,192.00
2022-08-28T04:13:59.289Z,196.00
2022-08-28T04:14:59.278Z,200.00
2022-08-28T04:15:59.305Z,204.00
2022-08-28T04:17:01.487Z,212.00
2022-08-28T04:17:59.801Z,220.00
2022-08-28T04:18:59.219Z,216.00
2022-08-28T04:19:59.208Z,224.00
2022-08-28T04:20:59.214Z,232.00
2022-08-28T04:21:59.172Z,228.00
2022-08-28T04:23:00.367Z,232.00
2022-08-28T04:23:59.152Z,240.00
2022-08-28T04:24:59.135Z,244.00
2022-08-28T04:25:59.145Z,248.00
2022-08-28T04:26:59.132Z,252.00
2022-08-28T04:27:59.774Z,256.00
2022-08-28T04:28:59.079Z,268.00
2022-08-28T04:29:59.072Z,276.00
2022-08-28T04:30:59.078Z,284.00
2022-08-28T04:31:59.047Z,280.00
2022-08-28T04:32:59.040Z,284.00
2022-08-28T04:33:59.008Z,288.00
2022-08-28T04:34:59.009Z,296.00
2022-08-28T04:35:59.011Z,300.00
2022-08-28T04:36:58.964Z,304.00
2022-08-28T04:37:59.191Z,308.00
2022-08-28T04:38:58.943Z,312.00
2022-08-28T04:39:58.981Z,316.00
2022-08-28T04:40:58.972Z,324.00
2022-08-28T04:41:58.896Z,328.00
2022-08-28T04:42:58.900Z,332.00
2022-08-28T04:43:58.869Z,332.00
2022-08-28T04:44:58.955Z,336.00
2022-08-28T04:45:58.880Z,340.00
2022-08-28T04:46:58.927Z,352.00
2022-08-28T04:47:58.812Z,356.00
2022-08-28T04:48:58.795Z,356.00
2022-08-28T04:49:58.798Z,348.00
2022-08-28T04:50:58.801Z,344.00
2022-08-28T04:51:58.759Z,348.00
2022-08-28T04:52:58.740Z,352.00
2022-08-28T04:53:58.730Z,356.00
2022-08-28T04:54:59.335Z,364.00
2022-08-28T04:55:58.728Z,368.00
2022-08-28T04:56:58.693Z,372.00
2022-08-28T04:57:58.666Z,368.00
2022-08-28T04:58:58.659Z,364.00
2022-08-28T04:59:58.660Z,364.00
2022-08-28T05:00:58.699Z,372.00
2022-08-28T05:01:59.335Z,368.00
2022-08-28T05:02:58.605Z,360.00
2022-08-28T05:03:58.618Z,360.00
2022-08-28T05:04:58.593Z,368.00
2022-08-28T05:05:58.591Z,372.00
2022-08-28T05:06:59.324Z,384.00
2022-08-28T05:07:58.530Z,392.00
2022-08-28T05:08:58.521Z,392.00
2022-08-28T05:09:58.529Z,392.00
2022-08-28T05:10:58.507Z,412.00
2022-08-28T05:11:58.487Z,444.00
2022-08-28T05:12:58.534Z,488.00
2022-08-28T05:13:58.448Z,548.00
2022-08-28T05:14:58.457Z,620.00
2022-08-28T05:15:58.483Z,700.00
2022-08-28T05:16:59.307Z,764.00
2022-08-28T05:17:58.465Z,804.00
2022-08-28T05:18:58.381Z,848.00
2022-08-28T05:19:58.391Z,912.00
2022-08-28T05:20:58.367Z,932.00
2022-08-28T05:21:59.326Z,1012.00
2022-08-28T05:22:58.327Z,1024.00
2022-08-28T05:23:58.318Z,1040.00
2022-08-28T05:24:58.308Z,1096.00
2022-08-28T05:25:58.308Z,1116.00
2022-08-28T05:26:58.836Z,1132.00
2022-08-28T05:27:58.263Z,1156.00
2022-08-28T05:28:58.345Z,1180.00
2022-08-28T05:30:01.673Z,1196.00
2022-08-28T05:30:58.236Z,1148.00
2022-08-28T05:31:58.302Z,1200.00
2022-08-28T05:32:58.189Z,1244.00
2022-08-28T05:33:58.183Z,1196.00
2022-08-28T05:34:58.182Z,1008.00
2022-08-28T05:35:58.177Z,1228.00
2022-08-28T05:36:58.178Z,1064.00
2022-08-28T05:37:58.179Z,896.00
2022-08-28T05:38:58.116Z,872.00
2022-08-28T05:39:58.257Z,1116.00
2022-08-28T05:40:58.110Z,1360.00
2022-08-28T05:41:58.121Z,1380.00
2022-08-28T05:42:58.058Z,1412.00
2022-08-28T05:43:58.055Z,1412.00
2022-08-28T05:44:58.050Z,1116.00
2022-08-28T05:45:58.131Z,1092.00
2022-08-28T05:46:58.053Z,1196.00
2022-08-28T05:47:58.116Z,980.00
2022-08-28T05:48:57.988Z,832.00
2022-08-28T05:49:57.981Z,712.00
2022-08-28T05:50:57.982Z,652.00
2022-08-28T05:51:57.980Z,676.00
2022-08-28T05:52:57.972Z,752.00
2022-08-28T05:53:57.975Z,784.00
2022-08-28T05:54:57.909Z,752.00
2022-08-28T05:55:57.918Z,672.00
2022-08-28T05:56:57.911Z,604.00
2022-08-28T05:57:57.882Z,580.00
2022-08-28T05:58:57.861Z,604.00
2022-08-28T05:59:57.852Z,692.00
2022-08-28T06:00:57.851Z,756.00
2022-08-28T06:02:00.951Z,768.00
2022-08-28T06:02:57.840Z,756.00
2022-08-28T06:03:57.926Z,768.00
2022-08-28T06:04:57.792Z,808.00
2022-08-28T06:05:57.796Z,1132.00
2022-08-28T06:06:57.804Z,1828.00
2022-08-28T06:07:57.779Z,1564.00
2022-08-28T06:08:59.225Z,1396.00
2022-08-28T06:09:57.720Z,1320.00
2022-08-28T06:10:57.716Z,1404.00
2022-08-28T06:11:57.705Z,1652.00
2022-08-28T06:12:57.725Z,1720.00
2022-08-28T06:13:57.733Z,1608.00
2022-08-28T06:14:57.656Z,1116.00
2022-08-28T06:15:57.787Z,1024.00
2022-08-28T06:16:57.640Z,1320.00
2022-08-28T06:17:57.634Z,1372.00
2022-08-28T06:18:57.608Z,1176.00
2022-08-28T06:19:57.660Z,1116.00
2022-08-28T06:20:57.593Z,1060.00
2022-08-28T06:21:57.588Z,1804.00
2022-08-28T06:22:57.590Z,1856.00
2022-08-28T06:23:57.569Z,1672.00
2022-08-28T06:24:58.337Z,1892.00
2022-08-28T06:25:57.529Z,1476.00
2022-08-28T06:26:58.556Z,2132.00
2022-08-28T06:27:57.526Z,2240.00
2022-08-28T06:28:57.497Z,2276.00
2022-08-28T06:29:57.519Z,2360.00
2022-08-28T06:31:22.781Z,2412.00
2022-08-28T06:31:57.487Z,2456.00
2022-08-28T06:32:57.453Z,2480.00
2022-08-28T06:33:57.436Z,2488.00
2022-08-28T06:34:57.466Z,2536.00
2022-08-28T06:35:57.447Z,2576.00
2022-08-28T06:36:57.391Z,2620.00
2022-08-28T06:37:57.384Z,2644.00
2022-08-28T06:38:57.396Z,2632.00
2022-08-28T06:39:57.433Z,2652.00
2022-08-28T06:40:57.867Z,2680.00
2022-08-28T06:41:57.342Z,2736.00
2022-08-28T06:42:57.324Z,2748.00
2022-08-28T06:43:57.322Z,2776.00
2022-08-28T06:44:57.313Z,2780.00
2022-08-28T06:45:57.386Z,2804.00
2022-08-28T06:46:57.853Z,2828.00
2022-08-28T06:47:57.264Z,2836.00
2022-08-28T06:48:57.258Z,2840.00
2022-08-28T06:49:57.244Z,2884.00
2022-08-28T06:50:57.256Z,2904.00
2022-08-28T06:51:57.261Z,2868.00
2022-08-28T06:52:57.222Z,2948.00
2022-08-28T06:53:57.199Z,2996.00
2022-08-28T06:54:57.194Z,3000.00
2022-08-28T06:55:57.218Z,2968.00
2022-08-28T06:56:57.191Z,2984.00
2022-08-28T06:57:57.203Z,2972.00
2022-08-28T06:58:57.165Z,2932.00
2022-08-28T06:59:57.136Z,2956.00
2022-08-28T07:01:02.776Z,2960.00
2022-08-28T07:01:57.256Z,2936.00
2022-08-28T07:02:57.191Z,2896.00
2022-08-28T07:03:57.097Z,2852.00
2022-08-28T07:04:57.082Z,2876.00
2022-08-28T07:05:57.078Z,2880.00
2022-08-28T07:06:57.069Z,2808.00
2022-08-28T07:07:57.059Z,2808.00
2022-08-28T07:08:57.061Z,2816.00
2022-08-28T07:09:57.037Z,2868.00
2022-08-28T07:10:57.070Z,2856.00
2022-08-28T07:11:57.019Z,2824.00
2022-08-28T07:12:57.026Z,2764.00
2022-08-28T07:13:57.002Z,2852.00
2022-08-28T07:14:57.013Z,2920.00
2022-08-28T07:15:57.067Z,2896.00
2022-08-28T07:16:56.982Z,2856.00
2022-08-28T07:17:56.950Z,2832.00
2022-08-28T07:18:56.951Z,2804.00
2022-08-28T07:19:56.940Z,2800.00
2022-08-28T07:20:56.969Z,2816.00
2022-08-28T07:21:56.913Z,2816.00
2022-08-28T07:22:59.543Z,2812.00
2022-08-28T07:23:56.897Z,2828.00
2022-08-28T07:24:56.884Z,2824.00
2022-08-28T07:25:56.895Z,2872.00
2022-08-28T07:26:56.887Z,2916.00
2022-08-28T07:27:56.882Z,2932.00
2022-08-28T07:29:09.415Z,3000.00
2022-08-28T07:29:56.846Z,2936.00
2022-08-28T07:30:56.901Z,2896.00
2022-08-28T07:31:56.829Z,2904.00
2022-08-28T07:32:56.815Z,2904.00
2022-08-28T07:33:56.830Z,2872.00
2022-08-28T07:34:56.797Z,2888.00
2022-08-28T07:35:56.835Z,2860.00
2022-08-28T07:36:56.783Z,2888.00
2022-08-28T07:37:56.769Z,2868.00
2022-08-28T07:38:56.780Z,2884.00
2022-08-28T07:39:56.801Z,2884.00
2022-08-28T07:40:56.737Z,2872.00
2022-08-28T07:41:57.413Z,2928.00
2022-08-28T07:42:56.718Z,2948.00
2022-08-28T07:43:56.709Z,2964.00
2022-08-28T07:44:56.714Z,2944.00
2022-08-28T07:45:56.754Z,2900.00
2022-08-28T07:46:56.719Z,2852.00
2022-08-28T07:47:56.674Z,2824.00
2022-08-28T07:48:56.664Z,2900.00
2022-08-28T07:49:56.655Z,2928.00
2022-08-28T07:50:56.650Z,2936.00
2022-08-28T07:51:56.641Z,2896.00
2022-08-28T07:52:56.663Z,2936.00
2022-08-28T07:53:56.618Z,2928.00
2022-08-28T07:54:56.625Z,2900.00
2022-08-28T07:55:56.605Z,2916.00
2022-08-28T07:56:56.597Z,2892.00
2022-08-28T07:57:56.585Z,2860.00
2022-08-28T07:58:56.596Z,2896.00
2022-08-28T07:59:56.601Z,2932.00
2022-08-28T08:00:57.434Z,2924.00
2022-08-28T08:01:56.656Z,2912.00
2022-08-28T08:02:56.549Z,2948.00
2022-08-28T08:04:01.361Z,2936.00
2022-08-28T08:04:56.542Z,2928.00
2022-08-28T08:05:56.529Z,2904.00
2022-08-28T08:06:58.194Z,2940.00
2022-08-28T08:07:56.537Z,2924.00
2022-08-28T08:08:56.492Z,2872.00
2022-08-28T08:09:56.478Z,2864.00
2022-08-28T08:10:56.484Z,2844.00
2022-08-28T08:11:56.479Z,2856.00
2022-08-28T08:12:56.498Z,2864.00
2022-08-28T08:13:57.419Z,2868.00
2022-08-28T08:14:56.425Z,2888.00
2022-08-28T08:15:56.487Z,2888.00
2022-08-28T08:16:56.422Z,2892.00
2022-08-28T08:17:56.435Z,2864.00
2022-08-28T08:18:56.406Z,2852.00
2022-08-28T08:19:56.387Z,2840.00
2022-08-28T08:20:56.375Z,2828.00
2022-08-28T08:21:56.377Z,2832.00
2022-08-28T08:22:56.359Z,2836.00
2022-08-28T08:23:56.350Z,2816.00
2022-08-28T08:24:56.361Z,2816.00
2022-08-28T08:25:56.333Z,2840.00
2022-08-28T08:27:00.194Z,2748.00
2022-08-28T08:27:56.309Z,2892.00
2022-08-28T08:28:56.305Z,2908.00
2022-08-28T08:29:56.304Z,2860.00
2022-08-28T08:30:56.399Z,2992.00
2022-08-28T08:31:56.317Z,2976.00
2022-08-28T08:32:56.270Z,2928.00
2022-08-28T08:33:56.276Z,2620.00
2022-08-28T08:34:56.253Z,2916.00
2022-08-28T08:35:56.243Z,2460.00
2022-08-28T08:36:56.245Z,2280.00
2022-08-28T08:37:59.610Z,2004.00
2022-08-28T08:38:59.716Z,3044.00
2022-08-28T08:39:56.244Z,2976.00
2022-08-28T08:40:56.231Z,2980.00
2022-08-28T08:41:56.194Z,2964.00
2022-08-28T08:42:56.197Z,2976.00
2022-08-28T08:43:56.179Z,2968.00
2022-08-28T08:44:56.184Z,3012.00
2022-08-28T08:45:56.258Z,2964.00
2022-08-28T08:46:56.168Z,2728.00
2022-08-28T08:47:56.142Z,3072.00
2022-08-28T08:48:56.138Z,2668.00
2022-08-28T08:49:56.131Z,2240.00
2022-08-28T08:50:56.121Z,2108.00
2022-08-28T08:51:56.128Z,1620.00
2022-08-28T08:52:56.103Z,2948.00
2022-08-28T08:53:56.107Z,3344.00
2022-08-28T08:54:59.379Z,2788.00
2022-08-28T08:55:56.075Z,3260.00
2022-08-28T08:56:56.078Z,1800.00
2022-08-28T08:57:56.067Z,3300.00
2022-08-28T08:58:56.087Z,2828.00
2022-08-28T08:59:56.048Z,2716.00
2022-08-28T09:00:56.942Z,1924.00
2022-08-28T09:01:56.106Z,1496.00
2022-08-28T09:02:56.073Z,2900.00
2022-08-28T09:03:56.065Z,1920.00
2022-08-28T09:04:56.035Z,1496.00
2022-08-28T09:05:56.013Z,2036.00
2022-08-28T09:06:55.993Z,2652.00
2022-08-28T09:07:56.972Z,2220.00
2022-08-28T09:08:55.981Z,2380.00
2022-08-28T09:09:55.977Z,2756.00
2022-08-28T09:10:55.971Z,2748.00
2022-08-28T09:11:57.102Z,2152.00
2022-08-28T09:12:55.972Z,1476.00
2022-08-28T09:13:55.941Z,1684.00
2022-08-28T09:14:55.936Z,1380.00
2022-08-28T09:15:56.045Z,2564.00
2022-08-28T09:16:55.910Z,2028.00
2022-08-28T09:17:55.916Z,2640.00
2022-08-28T09:18:55.919Z,2396.00
2022-08-28T09:19:55.921Z,2736.00
2022-08-28T09:20:55.880Z,2712.00
2022-08-28T09:21:55.918Z,2728.00
2022-08-28T09:22:55.869Z,2728.00
2022-08-28T09:23:55.851Z,2496.00
2022-08-28T09:24:55.843Z,2772.00
2022-08-28T09:25:55.866Z,2744.00
2022-08-28T09:26:55.862Z,2688.00
2022-08-28T09:27:55.826Z,2344.00
2022-08-28T09:28:55.810Z,2632.00
2022-08-28T09:29:55.809Z,2244.00
2022-08-28T09:30:55.835Z,2148.00
2022-08-28T09:31:55.793Z,1884.00
2022-08-28T09:32:55.802Z,1896.00
2022-08-28T09:33:55.801Z,1444.00
2022-08-28T09:34:55.811Z,1160.00
2022-08-28T09:35:55.771Z,1640.00
2022-08-28T09:36:55.780Z,2316.00
2022-08-28T09:37:55.752Z,2160.00
2022-08-28T09:38:55.753Z,1540.00
2022-08-28T09:39:55.799Z,2572.00
2022-08-28T09:40:55.741Z,2512.00
2022-08-28T09:41:55.718Z,2612.00
2022-08-28T09:42:56.486Z,2556.00
2022-08-28T09:43:55.725Z,2492.00
2022-08-28T09:44:55.692Z,2464.00
2022-08-28T09:45:55.766Z,2420.00
2022-08-28T09:46:55.710Z,2372.00
2022-08-28T09:47:55.696Z,2340.00
2022-08-28T09:48:55.659Z,2332.00
2022-08-28T09:49:56.489Z,2336.00
2022-08-28T09:50:55.650Z,2332.00
2022-08-28T09:51:55.647Z,2328.00
2022-08-28T09:52:55.642Z,2312.00
2022-08-28T09:53:55.649Z,2292.00
2022-08-28T09:54:55.637Z,2280.00
2022-08-28T09:55:55.619Z,2260.00
2022-08-28T09:56:56.488Z,2240.00
2022-08-28T09:57:55.629Z,2216.00
2022-08-28T09:58:55.591Z,2188.00
2022-08-28T09:59:55.584Z,2176.00
2022-08-28T10:00:55.593Z,2148.00
2022-08-28T10:01:55.629Z,2124.00
2022-08-28T10:02:55.589Z,2112.00
2022-08-28T10:03:56.529Z,2096.00
2022-08-28T10:04:55.560Z,2080.00
2022-08-28T10:05:55.542Z,2084.00
2022-08-28T10:06:55.535Z,2076.00
2022-08-28T10:07:55.540Z,2016.00
2022-08-28T10:08:55.534Z,2028.00
2022-08-28T10:09:55.522Z,1168.00
2022-08-28T10:10:56.485Z,1204.00
2022-08-28T10:11:55.508Z,1124.00
2022-08-28T10:12:55.483Z,1116.00
2022-08-28T10:13:55.477Z,1284.00
2022-08-28T10:14:55.484Z,1176.00
2022-08-28T10:15:55.527Z,1552.00
2022-08-28T10:16:55.447Z,2012.00
2022-08-28T10:17:56.012Z,2164.00
2022-08-28T10:18:55.455Z,1728.00
2022-08-28T10:19:55.438Z,2060.00
2022-08-28T10:20:55.426Z,1792.00
2022-08-28T10:21:55.430Z,1904.00
2022-08-28T10:22:55.431Z,1560.00
2022-08-28T10:23:55.445Z,1888.00
2022-08-28T10:24:56.008Z,1852.00
2022-08-28T10:25:55.403Z,1816.00
2022-08-28T10:26:55.375Z,1788.00
2022-08-28T10:27:55.366Z,1764.00
2022-08-28T10:28:55.367Z,1744.00
2022-08-28T10:29:55.366Z,1728.00
2022-08-28T10:30:55.432Z,1720.00
2022-08-28T10:31:55.337Z,1712.00
2022-08-28T10:32:55.366Z,1700.00
2022-08-28T10:33:55.329Z,1684.00
2022-08-28T10:34:55.317Z,1676.00
2022-08-28T10:35:55.323Z,1664.00
2022-08-28T10:36:55.340Z,1660.00
2022-08-28T10:37:55.323Z,1652.00
2022-08-28T10:38:55.287Z,1648.00
2022-08-28T10:39:55.394Z,1636.00
2022-08-28T10:40:55.270Z,1628.00
2022-08-28T10:41:55.259Z,1620.00
2022-08-28T10:42:55.268Z,1608.00
2022-08-28T10:43:55.274Z,1608.00
2022-08-28T10:44:55.257Z,1600.00
2022-08-28T10:45:55.309Z,1588.00
2022-08-28T10:46:55.282Z,1584.00
2022-08-28T10:47:55.216Z,1596.00
2022-08-28T10:48:55.203Z,1600.00
2022-08-28T10:49:55.213Z,1600.00
2022-08-28T10:50:55.229Z,1592.00
2022-08-28T10:51:55.203Z,1616.00
2022-08-28T10:52:55.180Z,1624.00
2022-08-28T10:53:55.187Z,1624.00
2022-08-28T10:54:55.166Z,1620.00
2022-08-28T10:55:55.165Z,1392.00
2022-08-28T10:56:56.681Z,1628.00
2022-08-28T10:57:55.163Z,1140.00
2022-08-28T10:58:55.162Z,892.00
2022-08-28T10:59:55.124Z,1088.00
2022-08-28T11:00:55.210Z,1324.00
2022-08-28T11:01:55.171Z,1756.00
2022-08-28T11:02:55.164Z,1744.00
2022-08-28T11:03:55.104Z,1760.00
2022-08-28T11:04:58.374Z,1732.00
2022-08-28T11:05:55.111Z,1180.00
2022-08-28T11:06:55.104Z,1508.00
2022-08-28T11:07:55.103Z,1420.00
2022-08-28T11:08:55.082Z,1384.00
2022-08-28T11:09:55.051Z,1592.00
2022-08-28T11:10:55.055Z,1164.00
2022-08-28T11:11:59.640Z,1560.00
2022-08-28T11:12:56.031Z,1336.00
2022-08-28T11:13:55.025Z,1040.00
2022-08-28T11:14:55.059Z,796.00
2022-08-28T11:15:55.028Z,840.00
2022-08-28T11:16:55.061Z,836.00
2022-08-28T11:17:55.004Z,1040.00
2022-08-28T11:18:55.007Z,1392.00
2022-08-28T11:19:55.002Z,1268.00
2022-08-28T11:20:54.998Z,960.00
2022-08-28T11:21:54.994Z,1212.00
2022-08-28T11:22:54.969Z,1784.00
2022-08-28T11:23:54.950Z,1772.00
2022-08-28T11:24:59.296Z,1784.00
2022-08-28T11:25:54.948Z,1756.00
2022-08-28T11:26:54.959Z,1740.00
2022-08-28T11:27:54.946Z,1048.00
2022-08-28T11:28:54.937Z,1556.00
2022-08-28T11:29:54.915Z,1116.00
2022-08-28T11:30:55.023Z,1196.00
2022-08-28T11:31:54.895Z,1668.00
2022-08-28T11:32:54.893Z,1536.00
2022-08-28T11:33:54.901Z,1644.00
2022-08-28T11:34:54.903Z,1628.00
2022-08-28T11:35:54.882Z,1600.00
2022-08-28T11:36:54.904Z,1576.00
2022-08-28T11:37:54.898Z,1544.00
2022-08-28T11:38:54.856Z,1508.00
2022-08-28T11:39:54.899Z,1468.00
2022-08-28T11:40:54.847Z,1428.00
2022-08-28T11:41:54.831Z,1396.00
2022-08-28T11:42:54.852Z,1368.00
2022-08-28T11:43:54.843Z,1320.00
2022-08-28T11:44:54.816Z,1320.00
2022-08-28T11:45:54.884Z,1248.00
2022-08-28T11:46:54.801Z,1212.00
2022-08-28T11:47:54.795Z,1316.00
2022-08-28T11:48:54.800Z,1312.00
2022-08-28T11:49:54.795Z,1152.00
2022-08-28T11:50:54.795Z,936.00
2022-08-28T11:51:54.804Z,1072.00
2022-08-28T11:52:55.549Z,1244.00
2022-08-28T11:53:54.751Z,1176.00
2022-08-28T11:54:54.745Z,1036.00
2022-08-28T11:55:54.748Z,1224.00
2022-08-28T11:56:54.727Z,1224.00
2022-08-28T11:57:54.728Z,832.00
2022-08-28T11:58:54.750Z,1256.00
2022-08-28T11:59:54.717Z,1248.00
2022-08-28T12:00:54.699Z,1276.00
2022-08-28T12:01:54.692Z,1284.00
2022-08-28T12:02:54.739Z,1224.00
2022-08-28T12:03:54.746Z,988.00
2022-08-28T12:04:54.698Z,712.00
2022-08-28T12:05:54.675Z,1344.00
2022-08-28T12:06:54.689Z,672.00
2022-08-28T12:07:55.563Z,816.00
2022-08-28T12:08:54.641Z,1304.00
2022-08-28T12:09:54.641Z,1336.00
2022-08-28T12:10:54.648Z,1268.00
2022-08-28T12:11:54.641Z,1044.00
2022-08-28T12:12:54.659Z,700.00
2022-08-28T12:13:54.632Z,856.00
2022-08-28T12:14:54.632Z,664.00
2022-08-28T12:15:54.678Z,1280.00
2022-08-28T12:16:54.592Z,1184.00
2022-08-28T12:17:54.592Z,1192.00
2022-08-28T12:18:54.601Z,1236.00
2022-08-28T12:19:55.647Z,1216.00
2022-08-28T12:20:54.583Z,696.00
2022-08-28T12:21:54.581Z,652.00
2022-08-28T12:22:55.114Z,1128.00
2022-08-28T12:23:57.027Z,1112.00
2022-08-28T12:24:54.632Z,1092.00
2022-08-28T12:25:54.548Z,1088.00
2022-08-28T12:26:54.539Z,1068.00
2022-08-28T12:27:54.522Z,1064.00
2022-08-28T12:28:54.534Z,1064.00